METAR AND TAF INFORMATION
METAR FOR SKSM
ADDS - METARS form results

(2023 UTC 26 March 2019)
Data provider http://aviationweather.gov/metar/data/
 
METAR text: SKSM 262000Z 36014KT 7000 FEW020 35/22 A2972 RMK HZ
Conditions at: SKSM (SANTA MARTA/SIMO, CO) observed 2000 UTC 26 March 2019
Temperature: 35.0°C (95°F)
Dewpoint: 22.0°C (72°F) [RH = 47%]
Pressure (altimeter): 29.72 inches Hg (1006.5 mb)
Winds: from the N (360 degrees) at 16 MPH (14 knots; 7.2 m/s)
Visibility: 4 miles ( 7 km)
Ceiling: at least 12,000 feet AGL
Clouds: few clouds at 2000 feet AGL
Weather: no significant weather observed at this time

 AIRPORT MAP

 RUNWAY INFORMATION
Runway 01 Runway length 5577 ft Runway width 98 ft
Runway elevation 8 ft Runway displaced threshold 0 ft Runway heading 359
Runway 19 Runway length 5577 ft Runway width 98 ft
Runway elevation 22 ft Runway displaced threshold 0 ft Runway heading 179

 AIRPORT FREQUENCIES
Type APP Name BARRANQUIL Frequency 119.1 MHZ
Type TWR Name TWR Frequency 118.7 MHZ

 AIRPORT NEAR NAVIGATION AIDS
Type NDB Name Santa Marta Frequency 287 KHZ
Type VOR-DME Name Santa Marta Frequency 116600 KHZ



Powered by Virtual Airlines Manager [v2.6.2]